sensor_id;sensor_type;location;lat;lon;timestamp;temperature;humidity
39665;DHT22;26679;50.872;4.332;2023-06-10T00:00:39;25.40;76.30
39665;DHT22;26679;50.872;4.332;2023-06-10T00:03:06;25.40;76.20
39665;DHT22;26679;50.872;4.332;2023-06-10T00:05:32;25.40;76.20
39665;DHT22;26679;50.872;4.332;2023-06-10T00:08:00;25.40;76.30
39665;DHT22;26679;50.872;4.332;2023-06-10T00:10:27;25.40;76.40
39665;DHT22;26679;50.872;4.332;2023-06-10T00:12:52;25.30;76.30
39665;DHT22;26679;50.872;4.332;2023-06-10T00:15:18;25.30;76.40
39665;DHT22;26679;50.872;4.332;2023-06-10T00:17:43;25.30;76.50
39665;DHT22;26679;50.872;4.332;2023-06-10T00:20:09;25.30;76.40
39665;DHT22;26679;50.872;4.332;2023-06-10T00:22:37;25.20;76.50
39665;DHT22;26679;50.872;4.332;2023-06-10T00:25:03;25.20;76.60
39665;DHT22;26679;50.872;4.332;2023-06-10T00:27:29;25.20;76.60
39665;DHT22;26679;50.872;4.332;2023-06-10T00:30:03;25.20;76.60
39665;DHT22;26679;50.872;4.332;2023-06-10T00:32:30;25.20;76.70
39665;DHT22;26679;50.872;4.332;2023-06-10T00:34:56;25.10;76.50
39665;DHT22;26679;50.872;4.332;2023-06-10T00:37:21;25.10;76.70
39665;DHT22;26679;50.872;4.332;2023-06-10T00:39:47;25.00;76.90
39665;DHT22;26679;50.872;4.332;2023-06-10T00:42:13;25.00;77.00
39665;DHT22;26679;50.872;4.332;2023-06-10T00:44:38;24.80;77.20
39665;DHT22;26679;50.872;4.332;2023-06-10T00:47:04;24.80;77.30
39665;DHT22;26679;50.872;4.332;2023-06-10T00:49:30;24.80;77.30
39665;DHT22;26679;50.872;4.332;2023-06-10T00:51:56;24.80;77.40
39665;DHT22;26679;50.872;4.332;2023-06-10T00:54:21;24.70;77.40
39665;DHT22;26679;50.872;4.332;2023-06-10T00:56:47;24.70;78.00
39665;DHT22;26679;50.872;4.332;2023-06-10T00:59:13;24.60;77.50
39665;DHT22;26679;50.872;4.332;2023-06-10T01:01:41;24.60;77.50
39665;DHT22;26679;50.872;4.332;2023-06-10T01:04:08;24.50;77.70
39665;DHT22;26679;50.872;4.332;2023-06-10T01:11:28;24.50;77.60
39665;DHT22;26679;50.872;4.332;2023-06-10T01:13:55;24.40;77.80
39665;DHT22;26679;50.872;4.332;2023-06-10T01:16:21;24.30;77.90
39665;DHT22;26679;50.872;4.332;2023-06-10T01:18:46;24.30;78.00
39665;DHT22;26679;50.872;4.332;2023-06-10T01:21:19;24.30;78.10
39665;DHT22;26679;50.872;4.332;2023-06-10T01:23:46;24.20;78.10
39665;DHT22;26679;50.872;4.332;2023-06-10T01:26:11;24.10;78.50
39665;DHT22;26679;50.872;4.332;2023-06-10T01:28:44;24.00;78.70
39665;DHT22;26679;50.872;4.332;2023-06-10T01:33:54;24.10;78.50
39665;DHT22;26679;50.872;4.332;2023-06-10T01:36:20;24.10;78.40
39665;DHT22;26679;50.872;4.332;2023-06-10T01:38:47;24.10;78.50
39665;DHT22;26679;50.872;4.332;2023-06-10T01:41:16;24.10;78.50
39665;DHT22;26679;50.872;4.332;2023-06-10T01:43:45;24.10;78.40
39665;DHT22;26679;50.872;4.332;2023-06-10T01:46:10;24.10;78.40
39665;DHT22;26679;50.872;4.332;2023-06-10T01:48:37;24.10;78.30
39665;DHT22;26679;50.872;4.332;2023-06-10T01:51:02;24.00;78.40
39665;DHT22;26679;50.872;4.332;2023-06-10T01:53:28;23.80;78.70
39665;DHT22;26679;50.872;4.332;2023-06-10T01:55:54;23.80;78.80
39665;DHT22;26679;50.872;4.332;2023-06-10T01:58:19;23.80;78.90
39665;DHT22;26679;50.872;4.332;2023-06-10T02:00:45;23.70;79.00
39665;DHT22;26679;50.872;4.332;2023-06-10T02:03:10;23.70;79.20
39665;DHT22;26679;50.872;4.332;2023-06-10T02:05:36;23.70;79.10
39665;DHT22;26679;50.872;4.332;2023-06-10T02:08:01;23.70;79.00
39665;DHT22;26679;50.872;4.332;2023-06-10T02:10:27;23.80;79.00
39665;DHT22;26679;50.872;4.332;2023-06-10T02:12:53;23.70;79.10
39665;DHT22;26679;50.872;4.332;2023-06-10T02:15:18;23.70;79.20
39665;DHT22;26679;50.872;4.332;2023-06-10T02:17:44;23.70;79.30
39665;DHT22;26679;50.872;4.332;2023-06-10T02:20:10;23.60;79.60
39665;DHT22;26679;50.872;4.332;2023-06-10T02:22:36;23.50;79.70
39665;DHT22;26679;50.872;4.332;2023-06-10T02:25:01;23.40;79.90
39665;DHT22;26679;50.872;4.332;2023-06-10T02:27:27;23.50;80.10
39665;DHT22;26679;50.872;4.332;2023-06-10T02:29:52;23.30;80.10
39665;DHT22;26679;50.872;4.332;2023-06-10T02:32:18;23.40;80.20
39665;DHT22;26679;50.872;4.332;2023-06-10T02:34:43;23.30;80.10
39665;DHT22;26679;50.872;4.332;2023-06-10T02:37:09;23.20;80.60
39665;DHT22;26679;50.872;4.332;2023-06-10T02:39:34;23.20;80.80
39665;DHT22;26679;50.872;4.332;2023-06-10T02:42:00;23.10;80.90
39665;DHT22;26679;50.872;4.332;2023-06-10T02:44:25;23.10;81.10
39665;DHT22;26679;50.872;4.332;2023-06-10T02:46:51;23.00;81.20
39665;DHT22;26679;50.872;4.332;2023-06-10T02:49:16;22.90;81.60
39665;DHT22;26679;50.872;4.332;2023-06-10T02:51:42;22.80;81.80
39665;DHT22;26679;50.872;4.332;2023-06-10T02:54:07;22.70;82.20
39665;DHT22;26679;50.872;4.332;2023-06-10T02:56:33;22.70;82.10
39665;DHT22;26679;50.872;4.332;2023-06-10T02:58:59;22.80;82.00
39665;DHT22;26679;50.872;4.332;2023-06-10T03:01:24;22.70;82.20
39665;DHT22;26679;50.872;4.332;2023-06-10T03:03:50;22.60;82.40
39665;DHT22;26679;50.872;4.332;2023-06-10T03:06:16;22.70;82.40
39665;DHT22;26679;50.872;4.332;2023-06-10T03:08:42;22.60;82.40
39665;DHT22;26679;50.872;4.332;2023-06-10T03:11:07;22.60;82.60
39665;DHT22;26679;50.872;4.332;2023-06-10T03:13:33;22.50;83.00
39665;DHT22;26679;50.872;4.332;2023-06-10T03:15:58;22.50;82.90
39665;DHT22;26679;50.872;4.332;2023-06-10T03:18:25;22.50;83.00
39665;DHT22;26679;50.872;4.332;2023-06-10T03:20:51;22.50;83.00
39665;DHT22;26679;50.872;4.332;2023-06-10T03:23:17;22.50;82.90
39665;DHT22;26679;50.872;4.332;2023-06-10T03:25:43;22.50;82.90
39665;DHT22;26679;50.872;4.332;2023-06-10T03:28:09;22.60;82.90
39665;DHT22;26679;50.872;4.332;2023-06-10T03:30:35;22.60;82.80
39665;DHT22;26679;50.872;4.332;2023-06-10T03:33:01;22.50;82.90
39665;DHT22;26679;50.872;4.332;2023-06-10T03:35:26;22.50;82.90
39665;DHT22;26679;50.872;4.332;2023-06-10T03:37:52;22.60;82.90
39665;DHT22;26679;50.872;4.332;2023-06-10T03:40:17;22.40;83.30
39665;DHT22;26679;50.872;4.332;2023-06-10T03:42:43;22.30;83.80
39665;DHT22;26679;50.872;4.332;2023-06-10T03:45:09;22.10;84.50
39665;DHT22;26679;50.872;4.332;2023-06-10T03:47:35;22.10;84.50
39665;DHT22;26679;50.872;4.332;2023-06-10T03:50:01;21.90;85.00
39665;DHT22;26679;50.872;4.332;2023-06-10T03:52:27;21.80;85.30
39665;DHT22;26679;50.872;4.332;2023-06-10T03:54:52;21.80;85.40
39665;DHT22;26679;50.872;4.332;2023-06-10T03:57:18;21.80;85.60
39665;DHT22;26679;50.872;4.332;2023-06-10T03:59:43;21.70;85.60
39665;DHT22;26679;50.872;4.332;2023-06-10T04:02:09;21.60;86.10
39665;DHT22;26679;50.872;4.332;2023-06-10T04:04:34;21.60;86.20
39665;DHT22;26679;50.872;4.332;2023-06-10T04:07:01;21.70;86.10
39665;DHT22;26679;50.872;4.332;2023-06-10T04:09:27;21.60;86.00
39665;DHT22;26679;50.872;4.332;2023-06-10T04:11:52;21.70;85.90
39665;DHT22;26679;50.872;4.332;2023-06-10T04:14:18;21.70;85.90
39665;DHT22;26679;50.872;4.332;2023-06-10T04:16:43;21.80;85.60
39665;DHT22;26679;50.872;4.332;2023-06-10T04:19:09;21.90;86.20
39665;DHT22;26679;50.872;4.332;2023-06-10T04:21:34;21.80;85.80
39665;DHT22;26679;50.872;4.332;2023-06-10T04:24:01;21.70;86.00
39665;DHT22;26679;50.872;4.332;2023-06-10T04:26:27;21.60;86.40
39665;DHT22;26679;50.872;4.332;2023-06-10T04:28:52;21.60;86.50
39665;DHT22;26679;50.872;4.332;2023-06-10T04:31:18;21.60;86.60
39665;DHT22;26679;50.872;4.332;2023-06-10T04:33:43;21.50;86.80
39665;DHT22;26679;50.872;4.332;2023-06-10T04:36:09;21.50;87.50
39665;DHT22;26679;50.872;4.332;2023-06-10T04:38:34;21.50;87.00
39665;DHT22;26679;50.872;4.332;2023-06-10T04:41:00;21.50;86.80
39665;DHT22;26679;50.872;4.332;2023-06-10T04:43:25;21.40;87.00
39665;DHT22;26679;50.872;4.332;2023-06-10T04:45:54;21.30;87.30
39665;DHT22;26679;50.872;4.332;2023-06-10T04:48:19;21.30;87.70
39665;DHT22;26679;50.872;4.332;2023-06-10T04:50:45;21.20;87.80
39665;DHT22;26679;50.872;4.332;2023-06-10T04:53:10;21.30;88.00
39665;DHT22;26679;50.872;4.332;2023-06-10T04:55:36;21.30;87.90
39665;DHT22;26679;50.872;4.332;2023-06-10T04:58:01;21.30;87.90
39665;DHT22;26679;50.872;4.332;2023-06-10T05:00:27;21.30;87.90
39665;DHT22;26679;50.872;4.332;2023-06-10T05:02:53;21.30;87.90
39665;DHT22;26679;50.872;4.332;2023-06-10T05:05:18;21.30;87.90
39665;DHT22;26679;50.872;4.332;2023-06-10T05:07:44;21.30;87.80
39665;DHT22;26679;50.872;4.332;2023-06-10T05:10:10;21.40;87.80
39665;DHT22;26679;50.872;4.332;2023-06-10T05:12:38;21.40;87.60
39665;DHT22;26679;50.872;4.332;2023-06-10T05:15:04;21.50;87.50
39665;DHT22;26679;50.872;4.332;2023-06-10T05:17:30;21.60;87.40
39665;DHT22;26679;50.872;4.332;2023-06-10T05:19:56;21.60;87.40
39665;DHT22;26679;50.872;4.332;2023-06-10T05:22:21;21.50;87.40
39665;DHT22;26679;50.872;4.332;2023-06-10T05:24:49;21.50;87.40
39665;DHT22;26679;50.872;4.332;2023-06-10T05:27:17;21.60;87.30
39665;DHT22;26679;50.872;4.332;2023-06-10T05:29:47;21.80;86.90
39665;DHT22;26679;50.872;4.332;2023-06-10T05:32:13;21.70;86.90
39665;DHT22;26679;50.872;4.332;2023-06-10T05:34:38;21.70;87.70
39665;DHT22;26679;50.872;4.332;2023-06-10T05:37:04;21.80;87.10
39665;DHT22;26679;50.872;4.332;2023-06-10T05:39:29;21.80;87.00
39665;DHT22;26679;50.872;4.332;2023-06-10T05:41:55;22.00;86.80
39665;DHT22;26679;50.872;4.332;2023-06-10T05:44:20;22.00;86.40
39665;DHT22;26679;50.872;4.332;2023-06-10T05:46:46;22.00;86.50
39665;DHT22;26679;50.872;4.332;2023-06-10T05:49:11;22.00;86.70
39665;DHT22;26679;50.872;4.332;2023-06-10T05:51:37;22.00;86.60
39665;DHT22;26679;50.872;4.332;2023-06-10T05:54:03;22.30;86.50
39665;DHT22;26679;50.872;4.332;2023-06-10T05:56:29;22.10;86.30
39665;DHT22;26679;50.872;4.332;2023-06-10T05:58:54;22.00;86.90
39665;DHT22;26679;50.872;4.332;2023-06-10T06:01:20;21.80;87.20
39665;DHT22;26679;50.872;4.332;2023-06-10T06:03:45;21.80;87.70
39665;DHT22;26679;50.872;4.332;2023-06-10T06:06:11;21.80;87.70
39665;DHT22;26679;50.872;4.332;2023-06-10T06:08:36;21.90;87.50
39665;DHT22;26679;50.872;4.332;2023-06-10T06:11:02;22.00;87.10
39665;DHT22;26679;50.872;4.332;2023-06-10T06:13:27;22.20;87.10
39665;DHT22;26679;50.872;4.332;2023-06-10T06:15:53;22.40;86.20
39665;DHT22;26679;50.872;4.332;2023-06-10T06:18:19;22.50;86.10
39665;DHT22;26679;50.872;4.332;2023-06-10T06:20:44;22.50;86.00
39665;DHT22;26679;50.872;4.332;2023-06-10T06:23:10;22.40;86.10
39665;DHT22;26679;50.872;4.332;2023-06-10T06:25:35;22.30;86.60
39665;DHT22;26679;50.872;4.332;2023-06-10T06:28:01;22.20;87.10
39665;DHT22;26679;50.872;4.332;2023-06-10T06:30:27;22.20;87.10
39665;DHT22;26679;50.872;4.332;2023-06-10T06:32:53;22.30;87.10
39665;DHT22;26679;50.872;4.332;2023-06-10T06:35:21;22.40;86.90
39665;DHT22;26679;50.872;4.332;2023-06-10T06:37:46;22.60;86.40
39665;DHT22;26679;50.872;4.332;2023-06-10T06:40:12;22.70;86.20
39665;DHT22;26679;50.872;4.332;2023-06-10T06:42:37;22.90;86.00
39665;DHT22;26679;50.872;4.332;2023-06-10T06:45:03;22.90;85.60
39665;DHT22;26679;50.872;4.332;2023-06-10T06:47:29;23.00;85.90
39665;DHT22;26679;50.872;4.332;2023-06-10T06:49:54;23.20;85.40
39665;DHT22;26679;50.872;4.332;2023-06-10T06:52:20;23.30;85.00
39665;DHT22;26679;50.872;4.332;2023-06-10T06:54:45;23.30;84.80
39665;DHT22;26679;50.872;4.332;2023-06-10T06:57:11;23.50;84.50
39665;DHT22;26679;50.872;4.332;2023-06-10T06:59:36;23.50;84.00
39665;DHT22;26679;50.872;4.332;2023-06-10T07:02:02;23.60;83.90
39665;DHT22;26679;50.872;4.332;2023-06-10T07:04:28;23.60;83.70
39665;DHT22;26679;50.872;4.332;2023-06-10T07:06:54;23.60;84.00
39665;DHT22;26679;50.872;4.332;2023-06-10T07:09:19;23.60;84.40
39665;DHT22;26679;50.872;4.332;2023-06-10T07:11:45;23.70;83.50
39665;DHT22;26679;50.872;4.332;2023-06-10T07:14:10;23.60;83.60
39665;DHT22;26679;50.872;4.332;2023-06-10T07:16:36;23.60;84.00
39665;DHT22;26679;50.872;4.332;2023-06-10T07:19:01;23.70;83.70
39665;DHT22;26679;50.872;4.332;2023-06-10T07:21:27;23.80;83.90
39665;DHT22;26679;50.872;4.332;2023-06-10T07:23:53;24.00;83.30
39665;DHT22;26679;50.872;4.332;2023-06-10T07:26:19;24.20;83.60
39665;DHT22;26679;50.872;4.332;2023-06-10T07:28:45;24.50;82.50
39665;DHT22;26679;50.872;4.332;2023-06-10T07:31:10;24.70;81.80
39665;DHT22;26679;50.872;4.332;2023-06-10T07:33:37;24.80;81.40
39665;DHT22;26679;50.872;4.332;2023-06-10T07:36:04;24.90;80.60
39665;DHT22;26679;50.872;4.332;2023-06-10T07:38:30;25.00;80.10
39665;DHT22;26679;50.872;4.332;2023-06-10T07:40:55;24.70;80.60
39665;DHT22;26679;50.872;4.332;2023-06-10T07:43:22;24.50;81.10
39665;DHT22;26679;50.872;4.332;2023-06-10T07:45:47;24.60;80.70
39665;DHT22;26679;50.872;4.332;2023-06-10T07:48:13;24.70;80.90
39665;DHT22;26679;50.872;4.332;2023-06-10T07:50:39;24.80;80.90
39665;DHT22;26679;50.872;4.332;2023-06-10T07:53:05;25.10;80.70
39665;DHT22;26679;50.872;4.332;2023-06-10T07:55:31;25.20;79.70
39665;DHT22;26679;50.872;4.332;2023-06-10T07:57:57;25.40;79.50
39665;DHT22;26679;50.872;4.332;2023-06-10T08:00:22;25.60;79.40
39665;DHT22;26679;50.872;4.332;2023-06-10T08:02:48;25.90;79.40
39665;DHT22;26679;50.872;4.332;2023-06-10T08:05:13;26.10;78.70
39665;DHT22;26679;50.872;4.332;2023-06-10T08:07:39;26.20;78.10
39665;DHT22;26679;50.872;4.332;2023-06-10T08:10:05;26.10;77.60
39665;DHT22;26679;50.872;4.332;2023-06-10T08:12:31;26.30;78.00
39665;DHT22;26679;50.872;4.332;2023-06-10T08:14:57;26.50;77.60
39665;DHT22;26679;50.872;4.332;2023-06-10T08:17:22;26.70;77.10
39665;DHT22;26679;50.872;4.332;2023-06-10T08:19:48;26.80;76.90
39665;DHT22;26679;50.872;4.332;2023-06-10T08:22:14;26.80;76.10
39665;DHT22;26679;50.872;4.332;2023-06-10T08:24:40;26.60;76.40
39665;DHT22;26679;50.872;4.332;2023-06-10T08:27:05;26.70;76.60
39665;DHT22;26679;50.872;4.332;2023-06-10T08:29:31;26.90;76.40
39665;DHT22;26679;50.872;4.332;2023-06-10T08:31:57;27.00;75.60
39665;DHT22;26679;50.872;4.332;2023-06-10T08:34:22;26.90;75.50
39665;DHT22;26679;50.872;4.332;2023-06-10T08:36:48;26.90;75.80
39665;DHT22;26679;50.872;4.332;2023-06-10T08:39:21;26.80;76.00
39665;DHT22;26679;50.872;4.332;2023-06-10T08:41:51;26.90;76.10
39665;DHT22;26679;50.872;4.332;2023-06-10T08:46:59;27.00;75.70
39665;DHT22;26679;50.872;4.332;2023-06-10T08:49:25;27.10;75.50
39665;DHT22;26679;50.872;4.332;2023-06-10T08:51:51;27.30;75.30
39665;DHT22;26679;50.872;4.332;2023-06-10T08:54:20;27.30;74.70
39665;DHT22;26679;50.872;4.332;2023-06-10T08:56:48;27.40;75.00
39665;DHT22;26679;50.872;4.332;2023-06-10T08:59:15;27.50;74.80
39665;DHT22;26679;50.872;4.332;2023-06-10T09:01:42;27.70;75.00
39665;DHT22;26679;50.872;4.332;2023-06-10T09:04:07;27.70;74.90
39665;DHT22;26679;50.872;4.332;2023-06-10T09:06:33;27.90;75.00
39665;DHT22;26679;50.872;4.332;2023-06-10T09:08:59;27.80;74.70
39665;DHT22;26679;50.872;4.332;2023-06-10T09:11:25;27.60;74.30
39665;DHT22;26679;50.872;4.332;2023-06-10T09:13:50;27.60;74.60
39665;DHT22;26679;50.872;4.332;2023-06-10T09:16:16;27.50;74.70
39665;DHT22;26679;50.872;4.332;2023-06-10T09:18:42;27.80;74.60
39665;DHT22;26679;50.872;4.332;2023-06-10T09:21:07;28.00;74.30
39665;DHT22;26679;50.872;4.332;2023-06-10T09:23:33;28.10;73.60
39665;DHT22;26679;50.872;4.332;2023-06-10T09:25:58;27.80;74.00
39665;DHT22;26679;50.872;4.332;2023-06-10T09:28:24;27.80;74.40
39665;DHT22;26679;50.872;4.332;2023-06-10T09:30:50;27.90;74.20
39665;DHT22;26679;50.872;4.332;2023-06-10T09:33:26;28.20;73.70
39665;DHT22;26679;50.872;4.332;2023-06-10T09:35:52;29.30;72.60
39665;DHT22;26679;50.872;4.332;2023-06-10T09:38:30;30.70;70.40
39665;DHT22;26679;50.872;4.332;2023-06-10T09:41:02;31.60;69.30
39665;DHT22;26679;50.872;4.332;2023-06-10T09:46:05;33.80;66.10
39665;DHT22;26679;50.872;4.332;2023-06-10T09:48:34;34.20;65.70
39665;DHT22;26679;50.872;4.332;2023-06-10T09:51:00;34.80;64.60
39665;DHT22;26679;50.872;4.332;2023-06-10T09:53:25;35.40;64.00
39665;DHT22;26679;50.872;4.332;2023-06-10T09:55:51;34.80;63.50
39665;DHT22;26679;50.872;4.332;2023-06-10T09:58:17;34.50;63.30
39665;DHT22;26679;50.872;4.332;2023-06-10T10:00:42;34.40;63.60
39665;DHT22;26679;50.872;4.332;2023-06-10T10:03:08;35.40;63.10
39665;DHT22;26679;50.872;4.332;2023-06-10T10:05:33;35.90;62.10
39665;DHT22;26679;50.872;4.332;2023-06-10T10:07:59;36.80;62.00
39665;DHT22;26679;50.872;4.332;2023-06-10T10:10:24;36.30;61.80
39665;DHT22;26679;50.872;4.332;2023-06-10T10:12:51;36.50;61.20
39665;DHT22;26679;50.872;4.332;2023-06-10T10:15:17;36.80;61.50
39665;DHT22;26679;50.872;4.332;2023-06-10T10:17:48;37.10;61.50
39665;DHT22;26679;50.872;4.332;2023-06-10T10:20:16;37.60;60.80
39665;DHT22;26679;50.872;4.332;2023-06-10T10:22:43;38.20;60.30
39665;DHT22;26679;50.872;4.332;2023-06-10T10:25:16;38.50;59.30
39665;DHT22;26679;50.872;4.332;2023-06-10T10:27:48;38.50;60.20
39665;DHT22;26679;50.872;4.332;2023-06-10T10:30:14;38.80;59.40
39665;DHT22;26679;50.872;4.332;2023-06-10T10:32:42;38.90;58.10
39665;DHT22;26679;50.872;4.332;2023-06-10T10:35:09;39.30;58.20
39665;DHT22;26679;50.872;4.332;2023-06-10T10:37:36;39.10;57.90
39665;DHT22;26679;50.872;4.332;2023-06-10T10:40:02;39.30;58.40
39665;DHT22;26679;50.872;4.332;2023-06-10T10:42:29;39.30;56.70
39665;DHT22;26679;50.872;4.332;2023-06-10T10:44:55;39.00;57.50
39665;DHT22;26679;50.872;4.332;2023-06-10T10:47:21;38.70;56.50
39665;DHT22;26679;50.872;4.332;2023-06-10T10:49:47;38.10;56.50
39665;DHT22;26679;50.872;4.332;2023-06-10T10:52:14;38.30;56.50
39665;DHT22;26679;50.872;4.332;2023-06-10T10:54:43;38.00;56.10
39665;DHT22;26679;50.872;4.332;2023-06-10T11:02:14;37.40;56.70
39665;DHT22;26679;50.872;4.332;2023-06-10T11:04:51;37.70;55.90
39665;DHT22;26679;50.872;4.332;2023-06-10T11:07:19;38.20;56.10
39665;DHT22;26679;50.872;4.332;2023-06-10T11:12:23;39.50;55.30
39665;DHT22;26679;50.872;4.332;2023-06-10T11:14:55;40.20;55.60
39665;DHT22;26679;50.872;4.332;2023-06-10T11:17:21;41.20;55.50
39665;DHT22;26679;50.872;4.332;2023-06-10T11:19:47;41.20;54.40
39665;DHT22;26679;50.872;4.332;2023-06-10T11:22:16;41.30;53.30
39665;DHT22;26679;50.872;4.332;2023-06-10T11:24:44;41.80;52.80
39665;DHT22;26679;50.872;4.332;2023-06-10T11:27:19;41.80;53.10
39665;DHT22;26679;50.872;4.332;2023-06-10T11:32:21;40.30;54.20
39665;DHT22;26679;50.872;4.332;2023-06-10T11:34:53;40.00;54.80
39665;DHT22;26679;50.872;4.332;2023-06-10T11:37:19;38.50;54.50
39665;DHT22;26679;50.872;4.332;2023-06-10T11:39:45;37.40;55.70
39665;DHT22;26679;50.872;4.332;2023-06-10T11:42:11;38.30;55.70
39665;DHT22;26679;50.872;4.332;2023-06-10T11:44:37;39.40;55.50
39665;DHT22;26679;50.872;4.332;2023-06-10T11:47:03;40.10;54.00
39665;DHT22;26679;50.872;4.332;2023-06-10T11:49:29;38.80;53.90
39665;DHT22;26679;50.872;4.332;2023-06-10T11:51:55;39.50;54.10
39665;DHT22;26679;50.872;4.332;2023-06-10T11:54:21;38.60;55.30
39665;DHT22;26679;50.872;4.332;2023-06-10T11:56:47;39.20;55.40
39665;DHT22;26679;50.872;4.332;2023-06-10T11:59:13;39.90;55.00
39665;DHT22;26679;50.872;4.332;2023-06-10T12:01:43;40.60;54.30
39665;DHT22;26679;50.872;4.332;2023-06-10T12:04:10;40.50;53.50
39665;DHT22;26679;50.872;4.332;2023-06-10T12:06:39;38.90;54.80
39665;DHT22;26679;50.872;4.332;2023-06-10T12:09:06;39.70;54.60
39665;DHT22;26679;50.872;4.332;2023-06-10T12:11:32;40.80;54.10
39665;DHT22;26679;50.872;4.332;2023-06-10T12:13:57;41.30;53.40
39665;DHT22;26679;50.872;4.332;2023-06-10T12:16:23;41.30;53.60
39665;DHT22;26679;50.872;4.332;2023-06-10T12:18:48;41.60;53.30
39665;DHT22;26679;50.872;4.332;2023-06-10T12:21:23;42.20;53.10
39665;DHT22;26679;50.872;4.332;2023-06-10T12:29:23;41.10;53.50
39665;DHT22;26679;50.872;4.332;2023-06-10T12:31:56;40.40;53.50
39665;DHT22;26679;50.872;4.332;2023-06-10T12:37:00;40.90;53.80
39665;DHT22;26679;50.872;4.332;2023-06-10T12:39:26;39.10;54.30
39665;DHT22;26679;50.872;4.332;2023-06-10T12:41:51;39.00;54.10
39665;DHT22;26679;50.872;4.332;2023-06-10T12:44:17;40.20;54.20
39665;DHT22;26679;50.872;4.332;2023-06-10T12:46:43;40.40;54.00
39665;DHT22;26679;50.872;4.332;2023-06-10T12:49:18;41.00;54.30
39665;DHT22;26679;50.872;4.332;2023-06-10T12:51:43;42.00;53.50
39665;DHT22;26679;50.872;4.332;2023-06-10T12:54:09;42.70;53.40
39665;DHT22;26679;50.872;4.332;2023-06-10T12:56:35;42.80;52.70
39665;DHT22;26679;50.872;4.332;2023-06-10T12:59:01;43.60;52.40
39665;DHT22;26679;50.872;4.332;2023-06-10T13:01:28;43.20;52.10
39665;DHT22;26679;50.872;4.332;2023-06-10T13:03:53;43.30;52.30
39665;DHT22;26679;50.872;4.332;2023-06-10T13:06:19;43.70;52.50
39665;DHT22;26679;50.872;4.332;2023-06-10T13:08:45;44.20;52.30
39665;DHT22;26679;50.872;4.332;2023-06-10T13:11:12;44.20;52.10
39665;DHT22;26679;50.872;4.332;2023-06-10T13:13:37;42.60;52.50
39665;DHT22;26679;50.872;4.332;2023-06-10T13:16:03;42.30;52.70
39665;DHT22;26679;50.872;4.332;2023-06-10T13:18:28;42.90;52.90
39665;DHT22;26679;50.872;4.332;2023-06-10T13:20:54;42.00;53.30
39665;DHT22;26679;50.872;4.332;2023-06-10T13:23:19;39.90;54.00
39665;DHT22;26679;50.872;4.332;2023-06-10T13:25:45;40.40;54.40
39665;DHT22;26679;50.872;4.332;2023-06-10T13:28:10;41.40;54.10
39665;DHT22;26679;50.872;4.332;2023-06-10T13:30:37;42.40;53.50
39665;DHT22;26679;50.872;4.332;2023-06-10T13:33:02;42.50;53.00
39665;DHT22;26679;50.872;4.332;2023-06-10T13:35:28;43.30;52.70
39665;DHT22;26679;50.872;4.332;2023-06-10T13:37:53;43.60;51.90
39665;DHT22;26679;50.872;4.332;2023-06-10T13:40:19;43.50;51.90
39665;DHT22;26679;50.872;4.332;2023-06-10T13:42:45;43.60;52.10
39665;DHT22;26679;50.872;4.332;2023-06-10T13:45:15;42.10;52.40
39665;DHT22;26679;50.872;4.332;2023-06-10T13:47:41;42.00;52.70
39665;DHT22;26679;50.872;4.332;2023-06-10T13:50:08;42.80;52.30
39665;DHT22;26679;50.872;4.332;2023-06-10T13:52:33;43.40;51.90
39665;DHT22;26679;50.872;4.332;2023-06-10T13:54:59;43.50;51.50
39665;DHT22;26679;50.872;4.332;2023-06-10T13:57:24;43.10;51.90
39665;DHT22;26679;50.872;4.332;2023-06-10T13:59:50;43.60;51.90
39665;DHT22;26679;50.872;4.332;2023-06-10T14:02:15;43.70;51.70
39665;DHT22;26679;50.872;4.332;2023-06-10T14:04:42;43.80;51.70
39665;DHT22;26679;50.872;4.332;2023-06-10T14:07:08;42.70;51.30
39665;DHT22;26679;50.872;4.332;2023-06-10T14:09:33;41.70;51.80
39665;DHT22;26679;50.872;4.332;2023-06-10T14:11:59;42.00;51.80
39665;DHT22;26679;50.872;4.332;2023-06-10T14:14:25;41.80;52.10
39665;DHT22;26679;50.872;4.332;2023-06-10T14:16:50;41.50;51.90
39665;DHT22;26679;50.872;4.332;2023-06-10T14:19:16;40.70;52.20
39665;DHT22;26679;50.872;4.332;2023-06-10T14:21:41;39.70;52.60
39665;DHT22;26679;50.872;4.332;2023-06-10T14:24:07;39.10;52.90
39665;DHT22;26679;50.872;4.332;2023-06-10T14:26:32;38.40;53.40
39665;DHT22;26679;50.872;4.332;2023-06-10T14:28:58;39.10;53.10
39665;DHT22;26679;50.872;4.332;2023-06-10T14:31:23;40.10;53.20
39665;DHT22;26679;50.872;4.332;2023-06-10T14:33:49;40.90;52.90
39665;DHT22;26679;50.872;4.332;2023-06-10T14:36:14;41.70;52.60
39665;DHT22;26679;50.872;4.332;2023-06-10T14:38:40;42.10;52.10
39665;DHT22;26679;50.872;4.332;2023-06-10T14:41:05;42.50;52.00
39665;DHT22;26679;50.872;4.332;2023-06-10T14:43:31;41.10;52.20
39665;DHT22;26679;50.872;4.332;2023-06-10T14:45:57;41.50;52.00
39665;DHT22;26679;50.872;4.332;2023-06-10T14:48:22;41.80;52.00
39665;DHT22;26679;50.872;4.332;2023-06-10T14:50:48;42.30;52.20
39665;DHT22;26679;50.872;4.332;2023-06-10T14:53:16;42.80;51.90
39665;DHT22;26679;50.872;4.332;2023-06-10T14:55:42;42.80;51.30
39665;DHT22;26679;50.872;4.332;2023-06-10T14:58:08;43.10;51.30
39665;DHT22;26679;50.872;4.332;2023-06-10T15:00:33;42.20;51.40
39665;DHT22;26679;50.872;4.332;2023-06-10T15:02:59;41.70;51.70
39665;DHT22;26679;50.872;4.332;2023-06-10T15:05:24;41.80;51.70
39665;DHT22;26679;50.872;4.332;2023-06-10T15:07:50;40.00;52.30
39665;DHT22;26679;50.872;4.332;2023-06-10T15:10:16;40.30;52.80
39665;DHT22;26679;50.872;4.332;2023-06-10T15:12:41;41.30;52.30
39665;DHT22;26679;50.872;4.332;2023-06-10T15:15:07;40.80;51.80
39665;DHT22;26679;50.872;4.332;2023-06-10T15:17:32;41.00;52.10
39665;DHT22;26679;50.872;4.332;2023-06-10T15:19:58;41.20;51.80
39665;DHT22;26679;50.872;4.332;2023-06-10T15:22:23;40.10;52.10
39665;DHT22;26679;50.872;4.332;2023-06-10T15:24:49;39.10;52.80
39665;DHT22;26679;50.872;4.332;2023-06-10T15:27:14;39.10;52.90
39665;DHT22;26679;50.872;4.332;2023-06-10T15:29:40;39.10;52.80
39665;DHT22;26679;50.872;4.332;2023-06-10T15:32:06;39.90;52.90
39665;DHT22;26679;50.872;4.332;2023-06-10T15:34:31;40.70;52.70
39665;DHT22;26679;50.872;4.332;2023-06-10T15:36:57;40.90;52.10
39665;DHT22;26679;50.872;4.332;2023-06-10T15:39:22;41.20;52.20
39665;DHT22;26679;50.872;4.332;2023-06-10T15:41:49;41.50;52.10
39665;DHT22;26679;50.872;4.332;2023-06-10T15:44:15;41.70;51.90
39665;DHT22;26679;50.872;4.332;2023-06-10T15:46:40;40.70;52.40
39665;DHT22;26679;50.872;4.332;2023-06-10T15:49:06;40.80;52.10
39665;DHT22;26679;50.872;4.332;2023-06-10T15:51:34;41.30;52.30
39665;DHT22;26679;50.872;4.332;2023-06-10T15:54:00;41.50;52.40